createdAt,value
2019-04-01T00:01:03.742Z,2.73
2019-04-01T00:03:32.827Z,3.80
2019-04-01T00:06:01.957Z,3.73
2019-04-01T00:08:31.028Z,2.93
2019-04-01T00:11:00.235Z,6.17
2019-04-01T00:13:29.323Z,9.47
2019-04-01T00:15:58.516Z,6.60
2019-04-01T00:18:27.601Z,7.70
2019-04-01T00:20:56.678Z,6.30
2019-04-01T00:23:25.832Z,3.50
2019-04-01T00:25:54.907Z,4.47
2019-04-01T00:28:23.983Z,4.00
2019-04-01T00:30:53.176Z,3.57
2019-04-01T00:33:22.321Z,2.77
2019-04-01T00:35:51.391Z,2.83
2019-04-01T00:38:20.798Z,1.73
2019-04-01T00:40:49.891Z,1.97
2019-04-01T00:43:37.879Z,2.23
2019-04-01T00:46:07.105Z,1.93
2019-04-01T00:48:36.102Z,2.10
2019-04-01T00:51:05.200Z,2.60
2019-04-01T00:53:34.309Z,2.73
2019-04-01T00:56:03.871Z,2.90
2019-04-01T00:58:32.881Z,3.00
2019-04-01T01:01:02.070Z,2.10
2019-04-01T01:03:31.372Z,2.23
2019-04-01T01:06:00.461Z,2.80
2019-04-01T01:08:29.864Z,1.90
2019-04-01T01:10:58.975Z,1.90
2019-04-01T01:13:28.334Z,2.07
2019-04-01T01:15:57.384Z,2.17
2019-04-01T01:18:26.849Z,2.93
2019-04-01T01:20:55.984Z,2.00
2019-04-01T01:23:25.139Z,3.10
2019-04-01T01:25:54.261Z,2.10
2019-04-01T01:28:23.615Z,1.97
2019-04-01T01:30:52.937Z,3.40
2019-04-01T01:33:22.034Z,2.57
2019-04-01T01:35:51.149Z,2.90
2019-04-01T01:38:20.500Z,2.47
2019-04-01T01:40:49.930Z,3.43
2019-04-01T01:43:19.158Z,2.17
2019-04-01T01:45:48.729Z,2.30
2019-04-01T01:48:18.234Z,2.33
2019-04-01T01:50:47.678Z,2.10
2019-04-01T01:53:16.781Z,5.27
2019-04-01T01:55:45.827Z,2.17
2019-04-01T01:58:15.260Z,3.50
2019-04-01T02:00:44.724Z,2.30
2019-04-01T02:03:13.771Z,2.50
2019-04-01T02:05:42.738Z,2.43
2019-04-01T02:08:11.930Z,3.40
2019-04-01T02:10:41.033Z,3.30
2019-04-01T02:13:10.430Z,3.90
2019-04-01T02:15:39.500Z,6.77
2019-04-01T02:18:08.768Z,7.10
2019-04-01T02:20:37.890Z,5.10
2019-04-01T02:23:07.118Z,12.63
2019-04-01T02:25:36.181Z,14.57
2019-04-01T02:28:05.172Z,16.37
2019-04-01T02:30:34.276Z,16.00
2019-04-01T02:33:03.703Z,16.90
2019-04-01T02:35:32.888Z,15.00
2019-04-01T02:38:01.897Z,8.63
2019-04-01T02:40:31.358Z,6.20
2019-04-01T02:43:00.559Z,16.90
2019-04-01T02:45:29.951Z,15.03
2019-04-01T02:47:59.077Z,17.80
2019-04-01T02:50:28.162Z,16.60
2019-04-01T02:52:57.269Z,19.40
2019-04-01T02:55:26.748Z,16.27
2019-04-01T02:57:59.616Z,17.40
2019-04-01T03:00:28.745Z,16.87
2019-04-01T03:02:58.173Z,16.40
2019-04-01T03:05:27.326Z,16.83
2019-04-01T03:07:56.446Z,15.33
2019-04-01T03:10:25.864Z,19.80
2019-04-01T03:12:55.019Z,15.57
2019-04-01T03:15:24.007Z,10.43
2019-04-01T03:17:53.510Z,15.07
2019-04-01T03:20:22.506Z,16.07
2019-04-01T03:22:52.239Z,16.67
2019-04-01T03:25:21.256Z,10.47
2019-04-01T03:27:50.426Z,12.37
2019-04-01T03:30:19.495Z,14.67
2019-04-01T03:32:48.520Z,16.80
2019-04-01T03:35:17.641Z,12.07
2019-04-01T03:37:46.691Z,12.00
2019-04-01T03:40:15.784Z,16.00
2019-04-01T03:42:44.800Z,15.63
2019-04-01T03:45:13.877Z,15.87
2019-04-01T03:47:42.973Z,15.77
2019-04-01T03:50:12.051Z,16.80
2019-04-01T03:52:41.332Z,18.73
2019-04-01T03:55:10.366Z,16.27
2019-04-01T03:57:39.536Z,19.77
2019-04-01T04:00:08.721Z,17.30
2019-04-01T04:02:37.810Z,17.70
2019-04-01T04:05:07.243Z,17.33
2019-04-01T04:07:36.427Z,15.13
2019-04-01T04:10:05.690Z,19.70
2019-04-01T04:12:34.906Z,17.47
2019-04-01T04:15:04.240Z,16.97
2019-04-01T04:17:33.636Z,16.17
2019-04-01T04:20:02.831Z,16.50
2019-04-01T04:22:31.901Z,17.53
2019-04-01T04:25:01.293Z,16.10
2019-04-01T04:27:30.300Z,16.67
2019-04-01T04:29:59.408Z,16.43
2019-04-01T04:32:28.430Z,16.87
2019-04-01T04:34:57.701Z,14.43
2019-04-01T04:37:26.896Z,13.90
2019-04-01T04:39:56.709Z,14.50
2019-04-01T04:42:25.950Z,11.70
2019-04-01T04:44:54.998Z,12.90
2019-04-01T04:47:24.088Z,9.30
2019-04-01T04:49:53.270Z,5.67
2019-04-01T04:52:22.384Z,11.03
2019-04-01T04:54:51.785Z,8.17
2019-04-01T04:57:20.778Z,15.17
2019-04-01T04:59:50.179Z,8.50
2019-04-01T05:02:19.213Z,9.30
2019-04-01T05:04:48.255Z,6.03
2019-04-01T05:07:17.534Z,3.80
2019-04-01T05:09:46.664Z,4.87
2019-04-01T05:12:16.028Z,4.70
2019-04-01T05:14:44.993Z,2.57
2019-04-01T05:17:13.928Z,3.10
2019-04-01T05:19:43.308Z,4.83
2019-04-01T05:22:13.161Z,4.70
2019-04-01T05:24:42.963Z,4.20
2019-04-01T05:27:13.462Z,3.60
2019-04-01T05:29:42.790Z,3.80
2019-04-01T05:32:13.160Z,3.90
2019-04-01T05:34:43.628Z,4.20
2019-04-01T05:37:12.751Z,6.07
2019-04-01T05:39:41.954Z,4.50
2019-04-01T05:42:10.994Z,7.17
2019-04-01T05:44:40.410Z,4.60
2019-04-01T05:47:09.513Z,5.27
2019-04-01T05:49:38.814Z,4.80
2019-04-01T05:52:08.524Z,9.63
2019-04-01T05:54:37.612Z,9.90
2019-04-01T05:57:06.677Z,10.70
2019-04-01T05:59:36.284Z,8.57
2019-04-01T06:02:05.616Z,8.80
2019-04-01T06:04:35.013Z,7.37
2019-04-01T06:07:04.693Z,7.50
2019-04-01T06:09:33.845Z,10.27
2019-04-01T06:12:02.886Z,9.27
2019-04-01T06:14:32.107Z,9.30
2019-04-01T06:17:01.494Z,8.67
2019-04-01T06:19:30.987Z,4.70
2019-04-01T06:22:00.420Z,9.10
2019-04-01T06:24:29.613Z,11.20
2019-04-01T06:26:59.050Z,9.37
2019-04-01T06:29:28.290Z,13.40
2019-04-01T06:31:57.574Z,11.77
2019-04-01T06:34:26.791Z,13.57
2019-04-01T06:36:55.943Z,10.80
2019-04-01T06:39:25.166Z,10.60
2019-04-01T06:41:54.493Z,9.40
2019-04-01T06:44:23.609Z,10.47
2019-04-01T06:46:52.680Z,11.27
2019-04-01T06:49:23.111Z,10.83
2019-04-01T06:51:52.594Z,9.53
2019-04-01T06:54:22.089Z,11.80
2019-04-01T06:56:51.760Z,8.70
2019-04-01T06:59:21.047Z,8.17
2019-04-01T07:11:42.382Z,4.75
2019-04-01T07:14:11.525Z,5.60
2019-04-01T07:16:41.031Z,4.05
2019-04-01T07:43:56.399Z,5.40
2019-04-01T07:53:50.056Z,3.40
2019-04-01T08:03:55.699Z,3.60
2019-04-01T08:06:24.856Z,2.97
2019-04-01T08:08:54.779Z,3.77
2019-04-01T08:11:24.738Z,3.80
2019-04-01T08:13:53.815Z,4.10
2019-04-01T08:16:23.322Z,3.10
2019-04-01T08:18:52.709Z,3.30
2019-04-01T08:21:21.804Z,3.73
2019-04-01T08:23:51.112Z,3.63
2019-04-01T08:26:20.331Z,3.20
2019-04-01T08:28:49.509Z,3.50
2019-04-01T08:31:19.070Z,3.67
2019-04-01T08:33:50.244Z,3.30
2019-04-01T08:36:19.346Z,4.80
2019-04-01T08:38:48.547Z,3.33
2019-04-01T08:41:17.887Z,4.20
2019-04-01T08:43:46.840Z,4.13
2019-04-01T08:46:16.157Z,2.80
2019-04-01T08:48:45.244Z,3.13
2019-04-01T08:51:14.446Z,3.22
2019-04-01T08:53:43.506Z,4.00
2019-04-01T08:56:12.952Z,4.60
2019-04-01T08:58:42.045Z,4.17
2019-04-01T09:01:11.119Z,4.17
2019-04-01T09:06:08.462Z,3.72
2019-04-01T09:08:37.899Z,4.20
2019-04-01T09:11:08.261Z,4.67
2019-04-01T09:23:29.360Z,4.53
2019-04-01T09:43:16.598Z,5.45
2019-04-01T09:45:45.777Z,5.67
2019-04-01T09:48:14.908Z,5.70
2019-04-01T09:50:43.977Z,5.43
2019-04-01T09:53:13.587Z,6.60
2019-04-01T09:55:42.800Z,8.33
2019-04-01T09:58:11.894Z,9.10
2019-04-01T10:00:41.366Z,8.90
2019-04-01T10:03:10.484Z,8.50
2019-04-01T10:05:39.689Z,9.73
2019-04-01T10:08:08.985Z,9.27
2019-04-01T10:10:38.381Z,10.25
2019-04-01T10:13:07.478Z,9.20
2019-04-01T10:15:36.644Z,9.80
2019-04-01T10:18:06.161Z,9.63
2019-04-01T10:20:35.675Z,9.40
2019-04-01T10:23:05.164Z,8.97
2019-04-01T10:25:34.352Z,8.67
2019-04-01T10:28:03.476Z,9.27
2019-04-01T10:30:32.472Z,8.40
2019-04-01T10:33:02.344Z,9.93
2019-04-01T10:35:32.349Z,9.10
2019-04-01T10:38:01.492Z,9.30
2019-04-01T10:40:31.836Z,8.10
2019-04-01T10:43:00.904Z,10.20
2019-04-01T10:45:50.361Z,10.20
2019-04-01T10:48:19.306Z,10.30
2019-04-01T10:50:48.251Z,9.73
2019-04-01T10:53:17.468Z,9.70
2019-04-01T10:55:46.582Z,9.87
2019-04-01T10:58:15.994Z,10.60
2019-04-01T11:03:13.945Z,9.70
2019-04-01T11:05:43.133Z,9.53
2019-04-01T11:08:12.253Z,10.10
2019-04-01T11:10:41.408Z,8.85
2019-04-01T11:15:38.497Z,9.90
2019-04-01T11:32:57.338Z,11.70
2019-04-01T14:31:02.144Z,9.13
2019-04-01T14:33:32.697Z,10.57
2019-04-01T14:36:02.685Z,10.70
2019-04-01T14:38:32.056Z,11.40
2019-04-01T14:41:01.159Z,10.10
2019-04-01T14:43:31.280Z,10.03
2019-04-01T14:46:00.414Z,10.00
2019-04-01T14:48:30.665Z,10.53
2019-04-01T14:51:00.087Z,10.47
2019-04-01T14:53:29.276Z,10.73
2019-04-01T14:55:59.198Z,8.80
2019-04-01T14:58:29.008Z,9.37
2019-04-01T15:00:58.049Z,9.77
2019-04-01T15:03:27.131Z,9.00
2019-04-01T15:05:56.618Z,8.93
2019-04-01T15:08:25.700Z,9.60
2019-04-01T15:10:55.192Z,9.00
2019-04-01T15:13:24.286Z,9.83
2019-04-01T15:15:53.244Z,9.57
2019-04-01T15:18:22.285Z,8.33
2019-04-01T15:20:51.780Z,9.10
2019-04-01T15:23:24.794Z,11.40
2019-04-01T15:25:54.439Z,17.13
2019-04-01T15:28:23.486Z,9.40
2019-04-01T15:30:53.015Z,8.80
2019-04-01T15:33:22.182Z,9.40
2019-04-01T15:35:51.259Z,8.13
2019-04-01T15:38:22.031Z,8.63
2019-04-01T15:40:51.600Z,8.47
2019-04-01T15:43:20.786Z,9.37
2019-04-01T15:45:50.741Z,9.23
2019-04-01T15:48:19.924Z,11.17
2019-04-01T15:50:49.319Z,9.90
2019-04-01T15:53:18.412Z,9.53
2019-04-01T15:55:47.827Z,9.27
2019-04-01T15:58:16.999Z,9.50
2019-04-01T16:00:46.213Z,9.33
2019-04-01T16:03:15.682Z,8.73
2019-04-01T16:05:45.216Z,8.97
2019-04-01T16:08:14.498Z,10.10
2019-04-01T16:10:44.247Z,9.63
2019-04-01T16:13:14.313Z,10.43
2019-04-01T16:15:43.925Z,9.70
2019-04-01T16:18:12.859Z,10.23
2019-04-01T16:20:42.023Z,9.07
2019-04-01T16:23:11.133Z,9.60
2019-04-01T16:25:40.194Z,9.70
2019-04-01T16:28:09.225Z,7.77
2019-04-01T16:30:38.728Z,8.70
2019-04-01T16:33:07.849Z,8.53
2019-04-01T16:35:36.909Z,9.10
2019-04-01T16:38:05.991Z,8.60
2019-04-01T16:40:35.488Z,9.20
2019-04-01T16:43:04.597Z,9.37
2019-04-01T16:45:33.632Z,9.70
2019-04-01T16:48:02.685Z,9.07
2019-04-01T16:50:32.187Z,8.57
2019-04-01T16:53:01.376Z,8.20
2019-04-01T16:55:31.292Z,8.87
2019-04-01T16:58:00.399Z,7.83
2019-04-01T17:00:29.969Z,8.33
2019-04-01T17:02:59.187Z,9.33
2019-04-01T17:05:31.566Z,9.03
2019-04-01T17:08:00.630Z,7.70
2019-04-01T17:10:29.682Z,7.90
2019-04-01T17:13:01.306Z,7.50
2019-04-01T17:15:29.505Z,8.90
2019-04-01T17:17:58.879Z,9.30
2019-04-01T17:20:28.290Z,8.70
2019-04-01T17:22:57.861Z,8.67
2019-04-01T17:25:27.185Z,7.93
2019-04-01T17:27:56.354Z,8.77
2019-04-01T17:30:25.283Z,9.07
2019-04-01T17:32:54.711Z,8.05
2019-04-01T17:35:24.079Z,7.20
2019-04-01T17:37:53.103Z,6.90
2019-04-01T17:40:22.236Z,7.75
2019-04-01T17:47:47.249Z,7.85
2019-04-01T17:50:17.583Z,7.23
2019-04-01T17:52:46.676Z,7.47
2019-04-01T17:55:17.049Z,7.63
2019-04-01T17:57:46.252Z,7.67
2019-04-01T18:00:19.969Z,8.00
2019-04-01T18:02:49.322Z,7.30
2019-04-01T18:05:18.495Z,7.87
2019-04-01T18:07:47.689Z,7.43
2019-04-01T18:10:16.814Z,8.37
2019-04-01T18:12:45.991Z,7.23
2019-04-01T18:15:16.272Z,7.77
2019-04-01T18:17:45.643Z,6.67
2019-04-01T18:20:14.805Z,8.63
2019-04-01T18:22:43.930Z,7.23
2019-04-01T18:25:14.095Z,7.57
2019-04-01T18:27:44.351Z,7.40
2019-04-01T18:30:14.183Z,8.67
2019-04-01T18:32:43.310Z,8.70
2019-04-01T18:35:12.396Z,7.30
2019-04-01T18:37:41.440Z,7.37
2019-04-01T18:40:11.040Z,6.50
2019-04-01T18:42:41.049Z,7.60
2019-04-01T18:45:10.143Z,8.00
2019-04-01T18:47:39.355Z,7.50
2019-04-01T18:50:09.010Z,7.73
2019-04-01T18:52:38.963Z,8.60
2019-04-01T18:55:08.174Z,8.97
2019-04-01T18:57:37.747Z,11.13
2019-04-01T19:00:07.373Z,13.03
2019-04-01T19:02:36.593Z,8.53
2019-04-01T19:05:05.812Z,24.53
2019-04-01T19:07:35.777Z,26.00
2019-04-01T19:10:06.750Z,20.00
2019-04-01T19:12:36.411Z,19.37
2019-04-01T19:15:06.727Z,43.80
2019-04-01T19:17:35.979Z,42.57
2019-04-01T19:20:05.451Z,48.47
2019-04-01T19:22:34.953Z,47.30
2019-04-01T19:25:04.051Z,49.97
2019-04-01T19:27:33.549Z,53.30
2019-04-01T19:30:02.985Z,62.10
2019-04-01T19:32:32.124Z,49.83
2019-04-01T19:35:01.252Z,53.50
2019-04-01T19:37:33.633Z,51.17
2019-04-01T19:40:01.685Z,49.10
2019-04-01T19:42:30.850Z,33.20
2019-04-01T19:45:00.523Z,30.30
2019-04-01T19:47:30.020Z,11.03
2019-04-01T19:49:59.392Z,19.40
2019-04-01T19:52:28.561Z,18.00
2019-04-01T19:54:57.693Z,11.83
2019-04-01T19:57:27.954Z,11.00
2019-04-01T19:59:57.452Z,9.27
2019-04-01T20:02:27.470Z,9.93
2019-04-01T20:04:56.718Z,10.50
2019-04-01T20:07:26.332Z,8.27
2019-04-01T20:09:55.839Z,8.77
2019-04-01T20:12:24.960Z,8.70
2019-04-01T20:14:54.324Z,10.30
2019-04-01T20:17:24.358Z,8.27
2019-04-01T20:19:53.769Z,8.20
2019-04-01T20:22:22.863Z,8.40
2019-04-01T20:24:52.694Z,8.23
2019-04-01T20:27:22.076Z,8.47
2019-04-01T20:29:51.499Z,8.10
2019-04-01T20:32:20.655Z,8.67
2019-04-01T20:34:56.840Z,8.27
2019-04-01T20:37:20.811Z,7.53
2019-04-01T20:39:50.171Z,7.63
2019-04-01T20:42:19.600Z,8.43
2019-04-01T20:44:48.673Z,7.80
2019-04-01T20:47:17.673Z,7.70
2019-04-01T20:49:47.199Z,8.73
2019-04-01T20:52:16.269Z,8.73
2019-04-01T20:54:45.897Z,8.20
2019-04-01T20:57:14.963Z,8.50
2019-04-01T20:59:44.409Z,8.63
2019-04-01T21:02:13.453Z,8.80
2019-04-01T21:04:43.176Z,8.30
2019-04-01T21:07:12.216Z,10.10
2019-04-01T21:09:41.272Z,10.57
2019-04-01T21:12:10.706Z,9.67
2019-04-01T21:14:39.984Z,10.00
2019-04-01T21:17:08.850Z,11.07
2019-04-01T21:19:37.935Z,11.20
2019-04-01T21:22:07.217Z,10.17
2019-04-01T21:24:37.362Z,9.50
2019-04-01T21:27:06.480Z,11.07
2019-04-01T21:29:35.573Z,12.23
2019-04-01T21:32:04.674Z,11.47
2019-04-01T21:34:34.781Z,12.10
2019-04-01T21:37:03.962Z,11.50
2019-04-01T21:39:33.158Z,11.00
2019-04-01T21:42:02.348Z,9.50
2019-04-01T21:44:31.859Z,10.60
2019-04-01T21:47:01.350Z,11.33
2019-04-01T21:49:30.549Z,10.40
2019-04-01T21:52:02.045Z,10.93
2019-04-01T21:54:31.101Z,11.17
2019-04-01T21:57:00.183Z,10.40
2019-04-01T21:59:29.699Z,10.10
2019-04-01T22:01:58.985Z,10.70
2019-04-01T22:04:28.515Z,10.90
2019-04-01T22:06:58.124Z,11.40
2019-04-01T22:09:27.524Z,10.57
2019-04-01T22:11:57.173Z,11.30
2019-04-01T22:14:27.627Z,11.57
2019-04-01T22:16:56.734Z,10.37
2019-04-01T22:19:26.155Z,11.13
2019-04-01T22:21:55.335Z,11.30
2019-04-01T22:24:24.685Z,9.90
2019-04-01T22:26:54.151Z,10.50
2019-04-01T22:29:23.239Z,10.60
2019-04-01T22:31:52.674Z,11.33
2019-04-01T22:34:21.738Z,11.37
2019-04-01T22:36:51.246Z,11.70
2019-04-01T22:39:27.077Z,12.10
2019-04-01T22:41:51.761Z,12.07
2019-04-01T22:44:20.987Z,13.47
2019-04-01T22:46:49.965Z,13.23
2019-04-01T22:49:19.074Z,11.60
2019-04-01T22:51:48.138Z,10.57
2019-04-01T22:54:17.277Z,10.57
2019-04-01T22:56:46.732Z,11.50
2019-04-01T22:59:15.742Z,10.63
2019-04-01T23:01:45.033Z,11.10
2019-04-01T23:04:14.162Z,12.90
2019-04-01T23:06:43.619Z,10.07
2019-04-01T23:09:12.642Z,10.97
2019-04-01T23:11:41.731Z,10.10
2019-04-01T23:14:10.802Z,11.97
2019-04-01T23:16:41.222Z,11.23
2019-04-01T23:19:10.249Z,10.53
2019-04-01T23:21:39.750Z,10.77
2019-04-01T23:24:08.919Z,9.20
2019-04-01T23:26:38.027Z,11.03
2019-04-01T23:29:07.103Z,9.40
2019-04-01T23:31:38.420Z,10.47
2019-04-01T23:34:07.276Z,10.70
2019-04-01T23:36:36.396Z,10.60
2019-04-01T23:39:07.511Z,10.00
2019-04-01T23:41:37.531Z,10.43
2019-04-01T23:44:06.877Z,9.77
2019-04-01T23:46:36.174Z,10.37
2019-04-01T23:49:05.651Z,10.00
2019-04-01T23:51:35.263Z,9.90
2019-04-01T23:54:05.535Z,10.40
2019-04-01T23:56:34.675Z,9.93
2019-04-01T23:59:03.709Z,10.87
